Time;durP1;ratioP1;P1;durP2;ratioP2;P2;SDS_P1;SDS_P2;PMS_P1;PMS_P2;Temp;Humidity;BMP_temperature;BMP_pressure;BME280_temperature;BME280_humidity;BME280_pressure;Samples;Min_cycle;Max_cycle;Signal;HPM_P1;HPM_P2
2022/11/11 00:00:37;;;;;;;14.32;5.43;;;;;;;11.93;100.00;101447.25;4949436;29;20487;-78
2022/11/11 00:03:21;;;;;;;11.18;4.25;;;;;;;11.95;100.00;101453.31;4949518;29;20563;-77
2022/11/11 00:06:09;;;;;;;11.52;4.68;;;;;;;11.90;100.00;101435.03;4942623;29;20038;-77
2022/11/11 00:08:53;;;;;;;18.10;5.10;;;;;;;11.93;100.00;101425.84;4959125;28;20062;-76
2022/11/11 00:11:36;;;;;;;18.10;4.50;;;;;;;11.89;100.00;101430.66;4948017;28;20468;-77
2022/11/11 00:14:20;;;;;;;12.40;4.10;;;;;;;11.88;100.00;101441.53;4948348;29;20163;-77
2022/11/11 00:26:25;;;;;;;11.52;5.03;;;;;;;11.81;100.00;101433.25;4944750;29;20106;-77
2022/11/11 00:29:09;;;;;;;13.95;5.75;;;;;;;11.83;100.00;101441.97;4943140;29;20045;-77
2022/11/11 00:41:18;;;;;;;11.75;4.88;;;;;;;11.69;100.00;101488.81;4943078;29;20130;-78
2022/11/11 00:44:02;;;;;;;10.45;5.10;;;;;;;11.66;100.00;101499.84;4941565;29;20042;-77
2022/11/11 00:52:51;;;;;;;14.13;5.25;;;;;;;11.61;100.00;101527.03;4960782;28;20110;-77
2022/11/11 00:55:37;;;;;;;15.17;5.13;;;;;;;11.61;100.00;101534.19;4947381;29;20512;-77
2022/11/11 00:58:22;;;;;;;8.68;4.20;;;;;;;11.63;100.00;101564.31;4948538;29;20826;-77
2022/11/11 01:01:06;;;;;;;12.35;4.93;;;;;;;11.66;100.00;101558.69;4942088;29;20050;-77
2022/11/11 01:03:50;;;;;;;14.88;5.35;;;;;;;11.60;100.00;101543.22;4948444;29;20054;-77
2022/11/11 01:06:36;;;;;;;12.55;4.40;;;;;;;11.58;100.00;101558.56;4947342;29;20093;-77
2022/11/11 01:09:19;;;;;;;14.27;4.80;;;;;;;11.54;100.00;101565.19;4948543;29;20073;-76
2022/11/11 01:12:04;;;;;;;17.00;4.93;;;;;;;11.52;100.00;101573.38;4947997;28;20286;-77
2022/11/11 01:14:47;;;;;;;18.45;4.97;;;;;;;11.46;100.00;101586.50;4974698;28;20491;-77
2022/11/11 01:17:31;;;;;;;9.95;4.82;;;;;;;11.51;100.00;101600.25;4965386;28;20073;-77
2022/11/11 01:20:15;;;;;;;6.57;4.50;;;;;;;11.53;100.00;101600.97;4949604;28;20049;-78
2022/11/11 01:22:59;;;;;;;15.63;4.63;;;;;;;11.52;100.00;101612.63;4957491;28;20050;-78
2022/11/11 01:25:45;;;;;;;12.95;5.03;;;;;;;11.48;100.00;101612.09;4960188;28;20073;-78
2022/11/11 01:28:30;;;;;;;18.60;4.75;;;;;;;11.51;100.00;101629.69;4961629;28;20054;-78
2022/11/11 01:31:15;;;;;;;14.13;4.50;;;;;;;11.48;100.00;101603.25;4949062;28;20074;-78
2022/11/11 01:33:59;;;;;;;15.15;4.93;;;;;;;11.47;100.00;101609.56;4960059;28;20075;-78
2022/11/11 01:36:43;;;;;;;14.52;4.63;;;;;;;11.44;100.00;101599.16;4959769;28;20132;-78
2022/11/11 01:39:27;;;;;;;15.00;4.82;;;;;;;11.44;100.00;101591.16;4958578;28;20555;-78
2022/11/11 01:42:11;;;;;;;15.68;4.68;;;;;;;11.39;100.00;101599.63;4960977;28;20045;-78
2022/11/11 01:44:55;;;;;;;15.48;4.72;;;;;;;11.39;100.00;101600.44;4971841;28;20042;-77
2022/11/11 01:50:43;;;;;;;8.13;3.80;;;;;;;11.35;100.00;101603.56;4951771;28;20178;-78
2022/11/11 01:53:28;;;;;;;19.65;5.47;;;;;;;11.32;100.00;101587.81;4958034;28;20423;-78
2022/11/11 01:56:12;;;;;;;16.40;5.15;;;;;;;11.35;100.00;101606.25;4974069;28;20534;-78
2022/11/11 01:59:02;;;;;;;12.30;5.10;;;;;;;11.31;100.00;101596.84;4959174;28;20042;-77
2022/11/11 02:01:46;;;;;;;17.65;5.53;;;;;;;11.29;100.00;101614.84;4972179;28;20050;-78
2022/11/11 02:07:36;;;;;;;15.27;5.30;;;;;;;11.30;100.00;101614.69;4957919;28;20037;-78
2022/11/11 02:10:23;;;;;;;10.88;4.65;;;;;;;11.30;100.00;101592.47;4956618;28;20081;-78
2022/11/11 02:16:17;;;;;;;9.57;4.07;;;;;;;11.31;100.00;101607.53;4956403;28;19945;-78
2022/11/11 02:19:02;;;;;;;10.90;4.65;;;;;;;11.25;100.00;101625.00;4958456;28;20090;-78
2022/11/11 02:21:54;;;;;;;16.45;4.57;;;;;;;11.24;100.00;101652.72;4959233;28;20126;-78
2022/11/11 02:24:41;;;;;;;12.35;5.75;;;;;;;11.26;100.00;101657.91;4954672;28;20045;-77
2022/11/11 02:27:28;;;;;;;11.98;4.93;;;;;;;11.28;100.00;101666.63;4950452;28;20435;-77
2022/11/11 02:30:15;;;;;;;14.75;5.00;;;;;;;11.28;100.00;101688.00;4961222;28;20053;-78
2022/11/11 02:33:00;;;;;;;13.40;3.55;;;;;;;11.24;100.00;101687.47;4951380;28;20047;-78
2022/11/11 02:35:57;;;;;;;15.82;5.53;;;;;;;11.25;100.00;101699.84;4953902;28;20129;-78
2022/11/11 02:38:42;;;;;;;18.88;4.55;;;;;;;11.25;100.00;101715.88;4955979;28;20074;-77
2022/11/11 02:44:29;;;;;;;9.57;4.05;;;;;;;11.19;100.00;101703.94;4958263;28;20089;-78
2022/11/11 02:47:13;;;;;;;12.77;4.13;;;;;;;11.24;100.00;101708.84;4961272;28;20054;-78
2022/11/11 02:49:57;;;;;;;12.52;4.10;;;;;;;11.22;100.00;101701.97;4959906;28;20985;-78
2022/11/11 02:52:41;;;;;;;11.07;3.78;;;;;;;11.21;100.00;101709.13;4963182;28;20049;-78
2022/11/11 02:55:25;;;;;;;14.75;4.70;;;;;;;11.20;100.00;101723.47;4953587;28;20057;-78
2022/11/11 02:58:09;;;;;;;13.60;3.83;;;;;;;11.25;100.00;101731.91;4962519;28;20046;-78
2022/11/11 03:00:53;;;;;;;14.98;4.15;;;;;;;11.23;100.00;101715.16;4974460;28;20102;-77
2022/11/11 03:03:37;;;;;;;11.90;4.63;;;;;;;11.27;100.00;101742.47;4963695;28;20054;-77
2022/11/11 03:06:21;;;;;;;17.85;4.40;;;;;;;11.24;100.00;101735.59;4959949;28;20050;-78
2022/11/11 03:09:05;;;;;;;19.60;5.82;;;;;;;11.23;100.00;101733.88;4975887;28;20162;-77
2022/11/11 03:11:49;;;;;;;23.63;5.43;;;;;;;11.29;100.00;101719.13;4973333;28;20105;-78
2022/11/11 03:14:33;;;;;;;8.63;5.03;;;;;;;11.30;100.00;101708.25;4976356;28;20108;-78
2022/11/11 03:23:23;;;;;;;17.77;5.85;;;;;;;11.23;100.00;101717.00;4955597;28;20534;-78
2022/11/11 03:26:07;;;;;;;19.60;5.25;;;;;;;11.18;100.00;101720.09;4961797;28;20045;-77
2022/11/11 03:28:51;;;;;;;13.43;5.25;;;;;;;11.17;100.00;101735.31;4961105;28;20054;-77
2022/11/11 03:31:36;;;;;;;14.45;5.95;;;;;;;11.18;100.00;101757.53;4975953;28;20046;-78
2022/11/11 03:34:20;;;;;;;16.30;5.45;;;;;;;11.20;100.00;101772.44;4959400;28;20092;-77
2022/11/11 03:40:12;;;;;;;15.40;6.15;;;;;;;11.23;100.00;101787.34;4963975;28;20101;-78
2022/11/11 03:42:56;;;;;;;19.02;6.38;;;;;;;11.21;100.00;101778.63;4961270;28;20098;-78
2022/11/11 03:45:42;;;;;;;22.20;7.68;;;;;;;11.22;100.00;101793.69;4961853;28;20101;-78
2022/11/11 03:48:29;;;;;;;21.27;5.75;;;;;;;11.25;100.00;101779.19;4959847;28;20041;-78
2022/11/11 03:51:12;;;;;;;21.80;6.00;;;;;;;11.25;100.00;101765.81;4963304;28;20054;-78
2022/11/11 03:53:56;;;;;;;18.33;6.80;;;;;;;11.23;100.00;101770.47;4972965;28;20050;-78
2022/11/11 03:56:40;;;;;;;23.23;5.93;;;;;;;11.23;100.00;101787.34;4974401;28;20636;-78
2022/11/11 03:59:24;;;;;;;19.23;5.82;;;;;;;11.25;100.00;101796.06;4961881;28;20495;-78
2022/11/11 04:11:32;;;;;;;25.73;8.27;;;;;;;11.22;100.00;101761.59;4958526;28;20283;-78
2022/11/11 04:17:19;;;;;;;18.83;7.10;;;;;;;11.24;100.00;101761.44;4957854;28;20583;-78
2022/11/11 04:23:06;;;;;;;21.77;6.75;;;;;;;11.29;100.00;101780.59;4948169;28;20050;-78
2022/11/11 04:25:51;;;;;;;17.42;6.40;;;;;;;11.24;100.00;101782.84;4946842;29;20086;-77
2022/11/11 04:32:34;;;;;;;19.23;6.88;;;;;;;11.30;100.00;101772.41;4943817;29;20050;-78
2022/11/11 04:34:45;;;;;;;14.40;6.45;;;;;;;11.27;100.00;101751.34;4944478;29;20153;-77
2022/11/11 04:37:35;;;;;;;15.02;6.68;;;;;;;11.25;100.00;101750.63;4944314;29;20043;-78
2022/11/11 04:43:22;;;;;;;15.73;7.30;;;;;;;11.29;100.00;101772.59;4942793;29;20145;-77
2022/11/11 04:46:06;;;;;;;16.73;6.10;;;;;;;11.29;100.00;101765.41;4953038;28;20057;-78
2022/11/11 04:48:50;;;;;;;19.42;5.78;;;;;;;11.24;100.00;101751.63;4938549;29;20056;-77
2022/11/11 04:56:46;;;;;;;22.08;7.53;;;;;;;11.28;100.00;101747.66;4948929;28;20919;-77
2022/11/11 04:57:42;;;;;;;15.82;6.40;;;;;;;11.22;100.00;101734.88;4943770;29;20134;-78
2022/11/11 05:00:27;;;;;;;19.40;6.55;;;;;;;11.22;100.00;101742.91;4944646;29;20169;-77
2022/11/11 05:03:15;;;;;;;26.80;7.25;;;;;;;11.22;100.00;101756.25;4945652;29;20069;-77
2022/11/11 05:09:03;;;;;;;20.05;7.88;;;;;;;11.27;100.00;101742.47;4946378;28;20141;-77
2022/11/11 05:11:47;;;;;;;21.27;7.28;;;;;;;11.28;100.00;101738.81;4944549;29;20049;-76
2022/11/11 05:26:42;;;;;;;15.27;6.75;;;;;;;11.23;100.00;101738.38;4945298;29;20046;-77
2022/11/11 05:29:26;;;;;;;22.80;7.90;;;;;;;11.20;100.00;101736.84;4949301;28;20042;-77
2022/11/11 05:32:15;;;;;;;21.52;7.95;;;;;;;11.22;100.00;101737.56;4947435;29;20042;-77
2022/11/11 05:34:59;;;;;;;21.55;7.18;;;;;;;11.20;100.00;101740.34;4942080;29;20050;-77
2022/11/11 05:37:43;;;;;;;20.65;7.20;;;;;;;11.23;100.00;101739.22;4946269;29;20066;-77
2022/11/11 05:40:27;;;;;;;20.90;7.47;;;;;;;11.20;100.00;101744.88;4944534;28;20185;-77
2022/11/11 05:43:11;;;;;;;20.70;7.55;;;;;;;11.21;100.00;101735.84;4961289;28;20050;-77
2022/11/11 05:45:55;;;;;;;23.65;9.07;;;;;;;11.14;100.00;101745.44;4945268;29;20050;-77
2022/11/11 05:49:13;;;;;;;21.67;6.82;;;;;;;11.17;100.00;101748.66;4945873;29;20071;-77
2022/11/11 05:51:44;;;;;;;19.63;7.07;;;;;;;11.20;100.00;101774.28;4944996;29;20050;-77
2022/11/11 05:54:28;;;;;;;16.35;7.32;;;;;;;11.16;100.00;101765.69;4948166;29;20123;-77
2022/11/11 05:57:12;;;;;;;27.52;7.60;;;;;;;11.15;100.00;101773.84;4946306;29;20054;-77
2022/11/11 05:59:57;;;;;;;28.10;8.57;;;;;;;11.13;100.00;101784.69;4945632;28;20046;-77
2022/11/11 06:02:41;;;;;;;23.93;7.27;;;;;;;11.17;100.00;101783.41;4947943;29;20499;-77
2022/11/11 06:05:25;;;;;;;32.78;9.63;;;;;;;11.14;100.00;101786.38;4947872;29;20278;-77
2022/11/11 06:08:09;;;;;;;20.83;8.55;;;;;;;11.15;100.00;101787.22;4943014;29;20074;-77
2022/11/11 06:10:53;;;;;;;20.92;7.78;;;;;;;11.12;100.00;101779.47;4969602;28;20053;-78
2022/11/11 06:13:37;;;;;;;16.52;7.65;;;;;;;11.14;100.00;101798.88;4950665;28;20054;-77
2022/11/11 06:16:22;;;;;;;24.02;8.65;;;;;;;11.16;100.00;101799.59;4955605;28;20117;-78
2022/11/11 06:19:06;;;;;;;17.50;8.43;;;;;;;11.13;100.00;101783.84;4946971;29;20046;-78
2022/11/11 06:21:56;;;;;;;22.20;8.50;;;;;;;11.17;100.00;101794.09;4965628;28;20102;-78
2022/11/11 06:24:40;;;;;;;19.77;8.30;;;;;;;11.13;100.00;101798.03;4951106;29;20105;-78
2022/11/11 06:27:24;;;;;;;22.27;8.30;;;;;;;11.14;100.00;101814.91;4951775;29;20527;-78
2022/11/11 06:30:08;;;;;;;17.92;7.55;;;;;;;11.11;100.00;101820.56;4950871;29;20093;-78
2022/11/11 06:32:53;;;;;;;19.10;8.20;;;;;;;11.19;100.00;101834.03;4952372;29;20408;-76
2022/11/11 06:35:39;;;;;;;23.07;8.33;;;;;;;11.17;100.00;101831.53;4951728;29;20126;-77
2022/11/11 06:38:23;;;;;;;16.77;8.90;;;;;;;11.18;100.00;101832.38;4957010;28;20050;-77
2022/11/11 06:41:09;;;;;;;21.90;7.95;;;;;;;11.10;100.00;101835.75;4950302;29;20082;-77
2022/11/11 06:43:52;;;;;;;;;;;;;;;11.10;100.00;101845.59;4951943;29;20074;-77
2022/11/11 06:46:36;;;;;;;22.17;8.23;;;;;;;11.11;100.00;101856.13;4951053;29;19921;-78
2022/11/11 06:49:21;;;;;;;25.88;9.45;;;;;;;11.07;100.00;101846.69;4950904;29;20071;-77
2022/11/11 06:52:05;;;;;;;22.83;9.13;;;;;;;11.13;100.00;101842.63;4938271;29;20051;-78
2022/11/11 06:54:49;;;;;;;19.42;9.30;;;;;;;11.09;100.00;101838.53;4951095;29;20053;-77
2022/11/11 06:57:33;;;;;;;15.77;8.30;;;;;;;11.03;100.00;101833.75;4962485;28;20895;-78
2022/11/11 07:00:17;;;;;;;27.05;10.30;;;;;;;11.03;100.00;101844.44;4953112;28;20519;-76
2022/11/11 07:03:03;;;;;;;18.60;8.13;;;;;;;10.97;100.00;101851.19;4963552;28;20550;-77
2022/11/11 07:05:47;;;;;;;18.97;8.90;;;;;;;11.02;100.00;101874.81;4973479;28;20950;-78
2022/11/11 07:08:31;;;;;;;24.73;9.50;;;;;;;11.02;100.00;101872.16;4959814;28;20554;-77
2022/11/11 07:11:15;;;;;;;27.20;10.95;;;;;;;10.91;100.00;101863.28;4959401;28;20399;-77
2022/11/11 07:13:59;;;;;;;21.90;9.35;;;;;;;10.94;100.00;101879.03;4962348;28;20050;-77
2022/11/11 07:16:43;;;;;;;32.38;10.80;;;;;;;10.93;100.00;101882.69;4962183;28;20058;-78
2022/11/11 07:19:27;;;;;;;27.27;9.25;;;;;;;10.92;100.00;101894.34;4960406;28;20513;-77
2022/11/11 07:22:11;;;;;;;21.83;9.65;;;;;;;10.93;100.00;101903.22;4963535;28;20081;-77
2022/11/11 07:24:55;;;;;;;23.25;10.27;;;;;;;10.91;100.00;101899.81;4961153;28;20046;-77
2022/11/11 07:27:40;;;;;;;26.60;10.27;;;;;;;10.87;100.00;101899.28;4974784;28;20046;-79
2022/11/11 07:30:25;;;;;;;24.08;10.25;;;;;;;10.85;100.00;101893.22;4958112;28;20041;-77
2022/11/11 07:33:09;;;;;;;22.90;9.80;;;;;;;10.84;100.00;101899.56;4962504;28;20053;-77
2022/11/11 07:35:53;;;;;;;24.02;9.77;;;;;;;10.82;100.00;101895.31;4960941;28;20126;-78
2022/11/11 07:38:37;;;;;;;29.55;11.43;;;;;;;10.78;100.00;101892.06;4975127;28;20141;-78
2022/11/11 07:41:21;;;;;;;25.25;10.98;;;;;;;10.81;100.00;101909.66;4959071;28;20054;-77
2022/11/11 07:44:06;;;;;;;27.40;10.77;;;;;;;10.83;100.00;101908.53;4958069;28;20082;-77
2022/11/11 07:46:49;;;;;;;20.38;10.77;;;;;;;10.85;100.00;101917.25;4960772;28;20045;-78
2022/11/11 07:49:34;;;;;;;25.80;11.60;;;;;;;10.80;100.00;101927.50;4961909;28;20069;-77
2022/11/11 07:52:18;;;;;;;25.73;11.60;;;;;;;10.77;100.00;101939.31;4971058;28;20428;-78
2022/11/11 07:55:02;;;;;;;33.92;11.60;;;;;;;10.83;100.00;101943.25;4959940;28;20119;-78
2022/11/11 07:57:46;;;;;;;23.33;11.93;;;;;;;10.81;100.00;101934.53;4960776;28;20041;-78
2022/11/11 08:00:30;;;;;;;29.98;12.45;;;;;;;10.81;100.00;101953.22;4953498;28;20467;-77
2022/11/11 08:03:14;;;;;;;25.25;11.82;;;;;;;10.83;100.00;101945.09;4975769;28;20053;-77
2022/11/11 08:06:01;;;;;;;23.85;11.95;;;;;;;10.79;100.00;101944.50;4973632;28;20058;-78
2022/11/11 08:08:45;;;;;;;23.33;11.90;;;;;;;10.80;100.00;101950.72;4973539;28;20045;-77
2022/11/11 08:14:33;;;;;;;24.35;11.48;;;;;;;10.84;100.00;101955.66;4951069;28;20100;-77
2022/11/11 08:17:16;;;;;;;26.02;12.57;;;;;;;10.80;100.00;101958.72;4950560;28;20081;-77
2022/11/11 08:20:00;;;;;;;35.55;13.57;;;;;;;10.84;100.00;101963.66;4957102;28;20073;-77
2022/11/11 08:22:44;;;;;;;24.50;13.13;;;;;;;10.78;100.00;101964.19;4956179;28;20110;-77
2022/11/11 08:25:29;;;;;;;35.25;14.02;;;;;;;10.79;100.00;101965.88;4956267;28;20045;-77
2022/11/11 08:28:13;;;;;;;25.03;12.33;;;;;;;10.70;100.00;101972.00;4956272;28;20190;-77
2022/11/11 08:30:59;;;;;;;35.22;13.55;;;;;;;10.66;100.00;101986.63;4955730;28;20046;-78
2022/11/11 08:33:44;;;;;;;29.65;14.80;;;;;;;10.65;100.00;101985.78;4957983;28;20122;-77
2022/11/11 08:36:28;;;;;;;25.48;13.65;;;;;;;10.68;100.00;101988.19;4953907;28;20089;-77
2022/11/11 08:39:12;;;;;;;26.90;12.98;;;;;;;10.69;100.00;101997.03;4949408;28;20113;-77
2022/11/11 08:41:56;;;;;;;28.38;14.57;;;;;;;10.75;100.00;102008.03;4941047;29;20099;-76
2022/11/11 08:44:40;;;;;;;35.80;14.45;;;;;;;10.76;100.00;102000.88;4948924;29;20046;-77
2022/11/11 08:47:24;;;;;;;28.90;13.63;;;;;;;10.75;100.00;102008.03;4948020;29;20050;-77
2022/11/11 08:50:08;;;;;;;25.85;14.10;;;;;;;10.68;100.00;102003.38;4944750;28;20563;-78
2022/11/11 08:52:52;;;;;;;29.40;14.00;;;;;;;10.72;100.00;102008.31;4949120;28;20109;-78
2022/11/11 08:55:37;;;;;;;23.65;13.10;;;;;;;10.76;100.00;102017.75;4948329;29;20059;-77
2022/11/11 08:58:21;;;;;;;23.38;12.55;;;;;;;10.81;100.00;102016.50;4948501;29;20178;-77
2022/11/11 09:01:10;;;;;;;37.20;14.27;;;;;;;10.78;100.00;102012.28;4941883;29;20055;-77
2022/11/11 09:03:54;;;;;;;33.85;13.90;;;;;;;10.74;100.00;102006.34;4948860;29;20082;-77
2022/11/11 09:06:40;;;;;;;27.67;13.65;;;;;;;10.77;100.00;102005.25;4948078;29;20050;-77
2022/11/11 09:09:23;;;;;;;32.38;14.20;;;;;;;10.80;100.00;102014.81;4954177;28;20062;-77
2022/11/11 09:12:08;;;;;;;34.13;15.20;;;;;;;10.82;100.00;102023.56;4950103;28;20448;-77
2022/11/11 09:14:51;;;;;;;34.60;15.40;;;;;;;10.82;100.00;102011.03;4960456;28;20089;-77
2022/11/11 09:17:35;;;;;;;29.77;12.85;;;;;;;10.81;100.00;102005.81;4963530;28;20043;-78
2022/11/11 09:20:20;;;;;;;36.92;14.32;;;;;;;10.75;100.00;102007.22;4947263;29;20070;-77
2022/11/11 09:23:04;;;;;;;28.25;13.10;;;;;;;10.74;100.00;102010.84;4940670;29;20425;-77
2022/11/11 09:25:48;;;;;;;30.98;13.50;;;;;;;10.77;100.00;102022.13;4948231;29;20078;-78
2022/11/11 09:28:32;;;;;;;29.33;14.55;;;;;;;10.73;100.00;102010.00;4947776;29;20973;-77
2022/11/11 09:31:16;;;;;;;30.85;14.93;;;;;;;10.75;100.00;102023.25;4947457;29;20050;-76
2022/11/11 09:34:01;;;;;;;33.42;15.20;;;;;;;10.77;100.00;102038.16;4946484;29;20045;-76
2022/11/11 09:36:45;;;;;;;29.80;14.98;;;;;;;10.81;100.00;102030.69;4947846;29;20058;-78
2022/11/11 09:39:29;;;;;;;29.10;14.07;;;;;;;10.85;100.00;102039.31;4953429;28;20137;-77
2022/11/11 09:42:43;;;;;;;30.38;15.27;;;;;;;10.92;100.00;102041.31;4948646;29;20110;-78
2022/11/11 09:45:35;;;;;;;25.95;13.88;;;;;;;10.94;100.00;102047.38;4944160;29;20050;-78
2022/11/11 09:48:42;;;;;;;27.30;13.60;;;;;;;10.92;100.00;102041.31;4946905;28;20042;-77
2022/11/11 09:51:34;;;;;;;31.88;14.88;;;;;;;11.01;100.00;102049.53;4944103;28;20128;-77
2022/11/11 09:54:32;;;;;;;26.70;14.15;;;;;;;10.97;100.00;102043.59;4947146;29;20077;-77
2022/11/11 09:57:31;;;;;;;23.92;12.75;;;;;;;11.03;100.00;102048.41;4946353;29;20101;-77
2022/11/11 10:00:24;;;;;;;29.13;12.50;;;;;;;11.04;100.00;102054.59;4960017;28;20535;-77
2022/11/11 10:03:18;;;;;;;28.52;14.45;;;;;;;11.03;100.00;102044.88;4963594;28;20580;-77
2022/11/11 10:06:08;;;;;;;28.70;15.10;;;;;;;11.05;100.00;102043.78;4962383;28;20124;-77
2022/11/11 10:09:01;;;;;;;27.38;14.00;;;;;;;11.11;100.00;102053.06;4962412;28;20575;-77
2022/11/11 10:12:17;;;;;;;27.67;14.30;;;;;;;11.16;100.00;102058.84;4962871;28;20097;-77
2022/11/11 10:15:04;;;;;;;27.65;14.60;;;;;;;11.17;100.00;102063.25;4962997;28;20571;-78
2022/11/11 10:18:08;;;;;;;31.88;13.45;;;;;;;11.15;100.00;102065.19;4961993;28;20108;-77
2022/11/11 10:20:54;;;;;;;37.45;15.27;;;;;;;11.17;100.00;102044.53;4949611;28;20074;-78
2022/11/11 10:23:39;;;;;;;26.08;12.63;;;;;;;11.11;100.00;102039.72;4976705;28;20046;-77
2022/11/11 10:26:38;;;;;;;30.38;14.82;;;;;;;11.09;100.00;102047.84;4972928;28;20050;-77
2022/11/11 10:29:25;;;;;;;28.35;13.68;;;;;;;11.12;100.00;102052.06;4964748;28;20070;-77
2022/11/11 10:32:26;;;;;;;28.60;15.73;;;;;;;11.24;100.00;102055.50;4976096;28;20054;-77
2022/11/11 10:35:20;;;;;;;36.28;14.70;;;;;;;11.13;100.00;102043.09;4963496;28;20424;-77
2022/11/11 10:38:19;;;;;;;29.00;16.15;;;;;;;11.14;100.00;102042.09;4963116;28;20081;-77
2022/11/11 10:41:20;;;;;;;38.67;17.08;;;;;;;11.15;100.00;102051.84;4962021;28;20083;-78
2022/11/11 10:44:37;;;;;;;34.17;15.80;;;;;;;11.22;100.00;102062.84;4964532;28;20049;-77
2022/11/11 10:47:42;;;;;;;43.15;18.60;;;;;;;11.30;100.00;102063.00;4867895;29;20043;-78
2022/11/11 10:50:49;;;;;;;40.47;19.02;;;;;;;11.11;100.00;102034.38;4882297;29;20055;-78
2022/11/11 10:53:52;;;;;;;46.92;18.92;;;;;;;11.15;100.00;102051.84;4885583;29;20056;-77
2022/11/11 10:56:50;;;;;;;39.03;17.38;;;;;;;11.17;100.00;102058.72;4881807;29;20104;-78
2022/11/11 10:59:42;;;;;;;37.40;17.08;;;;;;;11.20;100.00;102050.44;4882650;29;20057;-78
2022/11/11 11:02:38;;;;;;;36.15;15.70;;;;;;;11.13;100.00;102038.59;4878347;29;20517;-76
2022/11/11 11:05:39;;;;;;;35.05;16.45;;;;;;;11.22;100.00;102055.66;4881400;29;20055;-77
2022/11/11 11:08:28;;;;;;;45.10;18.70;;;;;;;11.24;100.00;102072.41;4881583;29;20040;-77
2022/11/11 11:11:20;;;;;;;34.63;16.08;;;;;;;11.22;100.00;102066.34;4881783;29;20048;-77
2022/11/11 11:14:26;;;;;;;36.92;16.13;;;;;;;11.16;100.00;102045.50;4883099;29;20081;-77
2022/11/11 11:17:22;;;;;;;41.42;17.10;;;;;;;11.15;100.00;102060.69;4884046;29;20059;-78
2022/11/11 11:20:17;;;;;;;44.60;17.15;;;;;;;11.12;100.00;102074.34;4883339;29;20085;-79
2022/11/11 11:23:01;;;;;;;36.00;16.33;;;;;;;11.14;100.00;102072.38;4935589;28;20159;-77
2022/11/11 11:25:53;;;;;;;43.88;19.58;;;;;;;11.13;100.00;102085.88;4974364;28;20101;-77
2022/11/11 11:28:55;;;;;;;43.95;18.27;;;;;;;11.15;100.00;102073.22;4945773;29;20563;-78
2022/11/11 11:31:41;;;;;;;35.90;17.10;;;;;;;11.18;100.00;102075.63;4960562;28;20041;-78
2022/11/11 11:34:43;;;;;;;50.20;18.40;;;;;;;11.13;100.00;102080.53;4959787;28;20045;-77
2022/11/11 11:37:27;;;;;;;38.40;16.45;;;;;;;11.04;100.00;102081.31;4958287;28;20094;-77
2022/11/11 11:40:12;;;;;;;35.70;16.15;;;;;;;11.06;100.00;102076.69;4961781;28;20054;-78
2022/11/11 11:42:56;;;;;;;39.58;18.02;;;;;;;10.98;100.00;102080.03;4957699;28;20454;-78
2022/11/11 11:45:40;;;;;;;41.75;17.65;;;;;;;10.99;100.00;102098.59;4962218;28;20510;-77
2022/11/11 11:48:49;;;;;;;35.05;17.67;;;;;;;10.95;100.00;102094.47;4959239;28;20057;-78
2022/11/11 11:51:54;;;;;;;38.15;18.58;;;;;;;10.98;100.00;102106.75;4948447;29;20081;-78
2022/11/11 11:55:02;;;;;;;;;;;;;;;10.96;100.00;102124.75;4971103;28;20081;-78
2022/11/11 11:57:54;;;;;;;35.83;17.90;;;;;;;10.93;100.00;102125.84;4946273;28;19929;-79
2022/11/11 12:00:50;;;;;;;34.30;18.02;;;;;;;10.92;100.00;102116.13;4945743;29;20385;-78
2022/11/11 12:03:55;;;;;;;29.65;17.05;;;;;;;11.01;100.00;102119.84;4961066;28;20050;-78
2022/11/11 12:07:05;;;;;;;32.05;16.63;;;;;;;11.01;100.00;102105.63;4957032;28;20046;-79
2022/11/11 12:10:10;;;;;;;30.83;16.05;;;;;;;11.05;100.00;102104.38;4958031;28;20097;-78
2022/11/11 12:13:15;;;;;;;33.10;16.97;;;;;;;11.11;100.00;102098.50;4960924;28;20098;-79
2022/11/11 12:16:20;;;;;;;43.58;17.13;;;;;;;11.03;100.00;102076.94;4958402;28;20046;-77
2022/11/11 12:19:42;;;;;;;34.67;16.00;;;;;;;11.12;100.00;102077.00;4960182;28;20440;-78
2022/11/11 12:22:38;;;;;;;24.67;14.75;;;;;;;11.10;100.00;102064.75;4963079;28;20205;-77
2022/11/11 12:25:54;;;;;;;30.20;15.38;;;;;;;11.07;100.00;102043.63;4951866;28;20058;-78
2022/11/11 12:28:50;;;;;;;29.35;15.13;;;;;;;11.08;100.00;102030.13;4867471;29;20051;-78
2022/11/11 12:31:42;;;;;;;32.30;14.50;;;;;;;11.12;100.00;102031.56;4857343;29;20165;-77
2022/11/11 12:34:46;;;;;;;29.05;14.73;;;;;;;11.10;100.00;102004.13;4858378;29;20104;-78
2022/11/11 12:37:36;;;;;;;27.27;14.85;;;;;;;11.13;100.00;102005.69;4876866;29;20157;-77
2022/11/11 12:40:34;;;;;;;27.45;13.20;;;;;;;11.15;100.00;102001.03;4884180;29;20104;-77
2022/11/11 12:43:36;;;;;;;26.27;13.90;;;;;;;11.19;100.00;102005.13;4866434;29;20124;-78
2022/11/11 12:46:47;;;;;;;27.77;13.43;;;;;;;11.16;100.00;102002.72;4876272;29;20061;-77
2022/11/11 12:49:43;;;;;;;29.70;12.82;;;;;;;11.19;100.00;102003.31;4867634;29;20039;-79
2022/11/11 12:52:44;;;;;;;27.00;14.85;;;;;;;11.14;100.00;101994.00;4858432;29;20136;-78
2022/11/11 12:55:51;;;;;;;24.48;12.93;;;;;;;11.12;100.00;101994.16;4880441;29;20099;-78
2022/11/11 12:58:46;;;;;;;28.33;12.52;;;;;;;11.27;100.00;101997.28;4874957;29;20079;-77
2022/11/11 13:01:50;;;;;;;24.55;14.30;;;;;;;11.24;100.00;101994.88;4877278;29;20055;-77
2022/11/11 13:04:55;;;;;;;21.95;14.32;;;;;;;11.22;100.00;101994.19;4902170;28;20408;-78
2022/11/11 13:08:03;;;;;;;24.15;11.93;;;;;;;11.21;100.00;101976.44;4956483;28;20041;-77
2022/11/11 13:11:10;;;;;;;32.88;14.32;;;;;;;11.27;100.00;101988.41;4957024;28;20053;-77
2022/11/11 13:14:37;;;;;;;22.30;13.13;;;;;;;11.28;100.00;101998.97;4959443;28;20069;-78
2022/11/11 13:17:21;;;;;;;24.55;12.60;;;;;;;11.24;100.00;101994.88;4959011;28;20053;-78
2022/11/11 13:20:41;;;;;;;29.73;12.35;;;;;;;11.26;100.00;101992.06;4973481;28;20098;-78
2022/11/11 13:23:25;;;;;;;30.98;12.80;;;;;;;11.32;100.00;101978.16;4964988;28;20062;-78
2022/11/11 13:26:42;;;;;;;22.75;12.80;;;;;;;11.24;100.00;101943.22;4973152;28;20049;-77
2022/11/11 13:29:52;;;;;;;19.83;11.93;;;;;;;11.26;100.00;101926.09;4874379;29;20557;-77
2022/11/11 13:32:51;;;;;;;23.88;12.77;;;;;;;11.20;100.00;101921.28;4877743;29;20176;-78
2022/11/11 13:35:36;;;;;;;19.05;10.48;;;;;;;11.26;100.00;101933.25;4880282;29;20520;-77
2022/11/11 13:38:33;;;;;;;22.23;12.25;;;;;;;11.23;100.00;101921.00;4874196;29;20052;-78
2022/11/11 13:41:28;;;;;;;20.92;12.45;;;;;;;11.18;100.00;101929.44;4873176;29;20142;-77
2022/11/11 13:44:28;;;;;;;24.02;12.68;;;;;;;11.25;100.00;101945.78;4877958;29;20159;-77
2022/11/11 13:47:19;;;;;;;22.33;13.18;;;;;;;11.20;100.00;101931.97;4872304;29;20039;-77
2022/11/11 13:50:12;;;;;;;23.73;12.13;;;;;;;11.18;100.00;101940.13;4877793;29;20079;-76
2022/11/11 13:53:04;;;;;;;19.27;12.18;;;;;;;11.18;100.00;101945.47;4878807;29;20060;-78
2022/11/11 13:55:51;;;;;;;19.40;11.65;;;;;;;11.20;100.00;101961.38;4881013;29;20048;-77
2022/11/11 13:58:37;;;;;;;20.83;12.30;;;;;;;11.18;100.00;101971.34;4879408;29;20124;-78
2022/11/11 14:01:21;;;;;;;;;;;;;;;11.11;100.00;101976.41;4874811;29;20444;-78
2022/11/11 14:04:07;;;;;;;20.05;11.63;;;;;;;11.12;100.00;101983.47;4880731;29;19922;-78
2022/11/11 14:06:52;;;;;;;23.95;13.27;;;;;;;11.17;100.00;102002.59;4958711;28;20145;-78
2022/11/11 14:09:57;;;;;;;22.55;11.75;;;;;;;11.14;100.00;102007.34;4955620;28;20045;-78
2022/11/11 14:12:52;;;;;;;22.95;12.95;;;;;;;11.10;100.00;102011.31;4956297;28;20049;-78
2022/11/11 14:15:44;;;;;;;22.50;12.30;;;;;;;11.12;100.00;102025.34;4954477;28;20121;-78